sensor_id;sensor_type;location;lat;lon;timestamp;temperature;humidity
1129;DHT22;553;51.038;7.216;2023-06-14T00:00:47;19.50;70.10
1129;DHT22;553;51.038;7.216;2023-06-14T00:03:15;19.60;70.00
1129;DHT22;553;51.038;7.216;2023-06-14T00:05:44;19.60;69.70
1129;DHT22;553;51.038;7.216;2023-06-14T00:08:13;19.70;69.30
1129;DHT22;553;51.038;7.216;2023-06-14T00:10:41;19.70;69.30
1129;DHT22;553;51.038;7.216;2023-06-14T00:13:09;19.80;69.50
1129;DHT22;553;51.038;7.216;2023-06-14T00:15:36;19.70;69.20
1129;DHT22;553;51.038;7.216;2023-06-14T00:18:03;19.80;68.90
1129;DHT22;553;51.038;7.216;2023-06-14T00:20:32;19.80;68.90
1129;DHT22;553;51.038;7.216;2023-06-14T00:23:00;19.80;68.90
1129;DHT22;553;51.038;7.216;2023-06-14T00:25:27;19.80;68.80
1129;DHT22;553;51.038;7.216;2023-06-14T00:27:57;19.70;68.90
1129;DHT22;553;51.038;7.216;2023-06-14T00:30:24;19.60;68.90
1129;DHT22;553;51.038;7.216;2023-06-14T00:32:51;19.70;69.00
1129;DHT22;553;51.038;7.216;2023-06-14T00:35:18;19.60;69.10
1129;DHT22;553;51.038;7.216;2023-06-14T00:37:45;19.60;69.10
1129;DHT22;553;51.038;7.216;2023-06-14T00:40:12;19.50;69.30
1129;DHT22;553;51.038;7.216;2023-06-14T00:42:40;19.50;69.40
1129;DHT22;553;51.038;7.216;2023-06-14T00:45:07;19.40;69.30
1129;DHT22;553;51.038;7.216;2023-06-14T00:47:35;19.40;69.50
1129;DHT22;553;51.038;7.216;2023-06-14T00:50:06;19.40;69.90
1129;DHT22;553;51.038;7.216;2023-06-14T00:52:34;19.40;69.60
1129;DHT22;553;51.038;7.216;2023-06-14T00:55:01;19.40;69.70
1129;DHT22;553;51.038;7.216;2023-06-14T00:57:28;19.30;70.10
1129;DHT22;553;51.038;7.216;2023-06-14T00:59:58;19.30;70.20
1129;DHT22;553;51.038;7.216;2023-06-14T01:02:25;19.20;70.00
1129;DHT22;553;51.038;7.216;2023-06-14T01:04:52;19.20;70.30
1129;DHT22;553;51.038;7.216;2023-06-14T01:07:25;19.20;70.20
1129;DHT22;553;51.038;7.216;2023-06-14T01:13:19;19.20;70.40
1129;DHT22;553;51.038;7.216;2023-06-14T01:15:47;19.20;70.40
1129;DHT22;553;51.038;7.216;2023-06-14T01:18:14;19.10;70.50
1129;DHT22;553;51.038;7.216;2023-06-14T01:20:47;19.00;70.40
1129;DHT22;553;51.038;7.216;2023-06-14T01:23:21;19.10;70.00
1129;DHT22;553;51.038;7.216;2023-06-14T01:25:49;19.10;70.20
1129;DHT22;553;51.038;7.216;2023-06-14T01:28:21;19.00;70.20
1129;DHT22;553;51.038;7.216;2023-06-14T01:30:50;19.10;69.90
1129;DHT22;553;51.038;7.216;2023-06-14T01:33:22;19.10;69.70
1129;DHT22;553;51.038;7.216;2023-06-14T01:35:53;18.90;70.90
1129;DHT22;553;51.038;7.216;2023-06-14T01:38:26;18.90;71.50
1129;DHT22;553;51.038;7.216;2023-06-14T01:40:55;18.80;71.40
1129;DHT22;553;51.038;7.216;2023-06-14T01:43:25;18.80;71.40
1129;DHT22;553;51.038;7.216;2023-06-14T01:45:54;18.70;71.30
1129;DHT22;553;51.038;7.216;2023-06-14T01:48:23;18.70;71.10
1129;DHT22;553;51.038;7.216;2023-06-14T01:50:50;18.60;71.30
1129;DHT22;553;51.038;7.216;2023-06-14T01:53:16;18.50;71.70
1129;DHT22;553;51.038;7.216;2023-06-14T01:55:43;18.50;71.50
1129;DHT22;553;51.038;7.216;2023-06-14T01:58:11;18.40;72.00
1129;DHT22;553;51.038;7.216;2023-06-14T02:00:37;18.40;71.30
1129;DHT22;553;51.038;7.216;2023-06-14T02:03:04;18.40;71.30
1129;DHT22;553;51.038;7.216;2023-06-14T02:05:32;18.40;71.50
1129;DHT22;553;51.038;7.216;2023-06-14T02:08:01;18.40;71.30
1129;DHT22;553;51.038;7.216;2023-06-14T02:10:27;18.30;71.70
1129;DHT22;553;51.038;7.216;2023-06-14T02:12:54;18.30;71.00
1129;DHT22;553;51.038;7.216;2023-06-14T02:15:21;18.30;70.00
1129;DHT22;553;51.038;7.216;2023-06-14T02:17:48;18.30;70.00
1129;DHT22;553;51.038;7.216;2023-06-14T02:20:16;18.30;70.00
1129;DHT22;553;51.038;7.216;2023-06-14T02:22:44;18.30;69.80
1129;DHT22;553;51.038;7.216;2023-06-14T02:25:11;18.40;69.70
1129;DHT22;553;51.038;7.216;2023-06-14T02:27:40;18.40;69.60
1129;DHT22;553;51.038;7.216;2023-06-14T02:30:07;18.40;69.60
1129;DHT22;553;51.038;7.216;2023-06-14T02:32:34;18.40;69.70
1129;DHT22;553;51.038;7.216;2023-06-14T02:35:02;18.40;69.60
1129;DHT22;553;51.038;7.216;2023-06-14T02:37:30;18.30;69.80
1129;DHT22;553;51.038;7.216;2023-06-14T02:39:56;18.30;69.70
1129;DHT22;553;51.038;7.216;2023-06-14T02:42:23;18.30;69.80
1129;DHT22;553;51.038;7.216;2023-06-14T02:44:50;18.30;70.10
1129;DHT22;553;51.038;7.216;2023-06-14T02:47:18;18.30;71.00
1129;DHT22;553;51.038;7.216;2023-06-14T02:49:45;18.20;70.40
1129;DHT22;553;51.038;7.216;2023-06-14T02:52:15;18.10;70.50
1129;DHT22;553;51.038;7.216;2023-06-14T02:54:42;18.10;70.60
1129;DHT22;553;51.038;7.216;2023-06-14T02:57:09;18.10;70.60
1129;DHT22;553;51.038;7.216;2023-06-14T02:59:37;18.10;70.50
1129;DHT22;553;51.038;7.216;2023-06-14T03:02:04;18.10;70.60
1129;DHT22;553;51.038;7.216;2023-06-14T03:04:33;18.10;70.40
1129;DHT22;553;51.038;7.216;2023-06-14T03:07:07;18.10;70.50
1129;DHT22;553;51.038;7.216;2023-06-14T03:09:39;18.00;70.60
1129;DHT22;553;51.038;7.216;2023-06-14T03:12:09;18.00;70.80
1129;DHT22;553;51.038;7.216;2023-06-14T03:14:36;18.00;70.90
1129;DHT22;553;51.038;7.216;2023-06-14T03:17:03;17.90;71.00
1129;DHT22;553;51.038;7.216;2023-06-14T03:19:33;17.90;71.00
1129;DHT22;553;51.038;7.216;2023-06-14T03:22:00;17.90;71.20
1129;DHT22;553;51.038;7.216;2023-06-14T03:24:29;17.90;71.40
1129;DHT22;553;51.038;7.216;2023-06-14T03:26:58;17.90;71.20
1129;DHT22;553;51.038;7.216;2023-06-14T03:29:27;17.80;71.40
1129;DHT22;553;51.038;7.216;2023-06-14T03:32:01;17.90;71.50
1129;DHT22;553;51.038;7.216;2023-06-14T03:34:40;17.80;71.80
1129;DHT22;553;51.038;7.216;2023-06-14T03:37:11;17.80;71.70
1129;DHT22;553;51.038;7.216;2023-06-14T03:39:38;17.80;71.90
1129;DHT22;553;51.038;7.216;2023-06-14T03:42:15;17.80;71.80
1129;DHT22;553;51.038;7.216;2023-06-14T03:44:44;17.80;72.20
1129;DHT22;553;51.038;7.216;2023-06-14T03:47:11;17.80;72.50
1129;DHT22;553;51.038;7.216;2023-06-14T03:49:37;17.80;72.30
1129;DHT22;553;51.038;7.216;2023-06-14T03:52:05;17.70;72.50
1129;DHT22;553;51.038;7.216;2023-06-14T03:54:33;17.70;72.60
1129;DHT22;553;51.038;7.216;2023-06-14T03:57:03;17.70;72.80
1129;DHT22;553;51.038;7.216;2023-06-14T03:59:30;17.70;72.80
1129;DHT22;553;51.038;7.216;2023-06-14T04:01:57;17.70;72.80
1129;DHT22;553;51.038;7.216;2023-06-14T04:04:24;17.70;72.90
1129;DHT22;553;51.038;7.216;2023-06-14T04:06:56;17.70;73.10
1129;DHT22;553;51.038;7.216;2023-06-14T04:09:25;17.70;73.20
1129;DHT22;553;51.038;7.216;2023-06-14T04:11:52;17.70;73.50
1129;DHT22;553;51.038;7.216;2023-06-14T04:14:19;17.60;73.40
1129;DHT22;553;51.038;7.216;2023-06-14T04:16:47;17.60;73.40
1129;DHT22;553;51.038;7.216;2023-06-14T04:19:16;17.60;73.60
1129;DHT22;553;51.038;7.216;2023-06-14T04:21:43;17.60;73.50
1129;DHT22;553;51.038;7.216;2023-06-14T04:24:10;17.70;73.80
1129;DHT22;553;51.038;7.216;2023-06-14T04:26:43;17.70;73.60
1129;DHT22;553;51.038;7.216;2023-06-14T04:29:18;17.70;73.70
1129;DHT22;553;51.038;7.216;2023-06-14T04:31:53;17.80;73.70
1129;DHT22;553;51.038;7.216;2023-06-14T04:34:22;17.80;73.70
1129;DHT22;553;51.038;7.216;2023-06-14T04:36:53;17.80;73.70
1129;DHT22;553;51.038;7.216;2023-06-14T04:39:27;17.90;73.60
1129;DHT22;553;51.038;7.216;2023-06-14T04:41:54;17.90;73.50
1129;DHT22;553;51.038;7.216;2023-06-14T04:44:24;17.90;73.40
1129;DHT22;553;51.038;7.216;2023-06-14T04:46:57;17.90;73.60
1129;DHT22;553;51.038;7.216;2023-06-14T04:49:25;17.90;73.60
1129;DHT22;553;51.038;7.216;2023-06-14T04:51:56;17.90;73.70
1129;DHT22;553;51.038;7.216;2023-06-14T04:54:28;17.90;73.70
1129;DHT22;553;51.038;7.216;2023-06-14T04:56:58;18.00;74.00
1129;DHT22;553;51.038;7.216;2023-06-14T04:59:26;18.00;74.00
1129;DHT22;553;51.038;7.216;2023-06-14T05:01:53;18.10;74.10
1129;DHT22;553;51.038;7.216;2023-06-14T05:04:21;18.20;73.90
1129;DHT22;553;51.038;7.216;2023-06-14T05:06:49;18.10;73.90
1129;DHT22;553;51.038;7.216;2023-06-14T05:09:16;18.20;73.90
1129;DHT22;553;51.038;7.216;2023-06-14T05:11:44;18.30;73.90
1129;DHT22;553;51.038;7.216;2023-06-14T05:14:12;18.50;73.50
1129;DHT22;553;51.038;7.216;2023-06-14T05:16:39;18.50;73.20
1129;DHT22;553;51.038;7.216;2023-06-14T05:19:06;18.60;73.40
1129;DHT22;553;51.038;7.216;2023-06-14T05:21:33;18.70;73.20
1129;DHT22;553;51.038;7.216;2023-06-14T05:24:07;18.90;72.80
1129;DHT22;553;51.038;7.216;2023-06-14T05:26:36;19.10;72.60
1129;DHT22;553;51.038;7.216;2023-06-14T05:29:02;19.20;72.50
1129;DHT22;553;51.038;7.216;2023-06-14T05:31:29;19.40;72.30
1129;DHT22;553;51.038;7.216;2023-06-14T05:33:56;19.70;71.50
1129;DHT22;553;51.038;7.216;2023-06-14T05:36:23;19.70;71.30
1129;DHT22;553;51.038;7.216;2023-06-14T05:38:50;19.90;71.00
1129;DHT22;553;51.038;7.216;2023-06-14T05:41:27;20.20;70.80
1129;DHT22;553;51.038;7.216;2023-06-14T05:43:55;20.30;70.00
1129;DHT22;553;51.038;7.216;2023-06-14T05:46:22;20.30;70.10
1129;DHT22;553;51.038;7.216;2023-06-14T05:48:52;20.40;70.70
1129;DHT22;553;51.038;7.216;2023-06-14T05:51:19;20.60;70.10
1129;DHT22;553;51.038;7.216;2023-06-14T05:53:46;20.80;70.10
1129;DHT22;553;51.038;7.216;2023-06-14T05:56:14;21.20;69.70
1129;DHT22;553;51.038;7.216;2023-06-14T05:58:41;21.40;69.10
1129;DHT22;553;51.038;7.216;2023-06-14T06:01:07;21.50;68.90
1129;DHT22;553;51.038;7.216;2023-06-14T06:03:34;21.40;68.50
1129;DHT22;553;51.038;7.216;2023-06-14T06:06:01;21.60;68.40
1129;DHT22;553;51.038;7.216;2023-06-14T06:08:29;21.80;68.60
1129;DHT22;553;51.038;7.216;2023-06-14T06:10:56;22.10;67.30
1129;DHT22;553;51.038;7.216;2023-06-14T06:13:23;22.30;67.90
1129;DHT22;553;51.038;7.216;2023-06-14T06:15:50;22.50;67.50
1129;DHT22;553;51.038;7.216;2023-06-14T06:18:17;22.70;67.70
1129;DHT22;553;51.038;7.216;2023-06-14T06:20:44;23.00;66.50
1129;DHT22;553;51.038;7.216;2023-06-14T06:23:11;23.00;65.60
1129;DHT22;553;51.038;7.216;2023-06-14T06:25:38;23.20;65.50
1129;DHT22;553;51.038;7.216;2023-06-14T06:28:05;23.20;65.90
1129;DHT22;553;51.038;7.216;2023-06-14T06:30:32;23.20;66.20
1129;DHT22;553;51.038;7.216;2023-06-14T06:32:58;23.30;65.40
1129;DHT22;553;51.038;7.216;2023-06-14T06:35:25;23.40;64.80
1129;DHT22;553;51.038;7.216;2023-06-14T06:37:52;23.50;64.50
1129;DHT22;553;51.038;7.216;2023-06-14T06:40:19;23.70;64.20
1129;DHT22;553;51.038;7.216;2023-06-14T06:42:46;23.70;64.20
1129;DHT22;553;51.038;7.216;2023-06-14T06:45:13;23.90;64.30
1129;DHT22;553;51.038;7.216;2023-06-14T06:47:40;24.20;64.00
1129;DHT22;553;51.038;7.216;2023-06-14T06:50:07;24.20;61.70
1129;DHT22;553;51.038;7.216;2023-06-14T06:52:35;24.00;60.80
1129;DHT22;553;51.038;7.216;2023-06-14T06:55:02;23.90;60.30
1129;DHT22;553;51.038;7.216;2023-06-14T06:57:29;23.70;61.00
1129;DHT22;553;51.038;7.216;2023-06-14T06:59:57;23.80;61.10
1129;DHT22;553;51.038;7.216;2023-06-14T07:02:24;23.90;61.40
1129;DHT22;553;51.038;7.216;2023-06-14T07:04:51;23.90;59.60
1129;DHT22;553;51.038;7.216;2023-06-14T07:07:18;23.90;59.80
1129;DHT22;553;51.038;7.216;2023-06-14T07:09:45;23.80;58.30
1129;DHT22;553;51.038;7.216;2023-06-14T07:12:12;23.80;59.20
1129;DHT22;553;51.038;7.216;2023-06-14T07:14:39;24.10;58.50
1129;DHT22;553;51.038;7.216;2023-06-14T07:17:06;24.10;59.20
1129;DHT22;553;51.038;7.216;2023-06-14T07:19:34;24.20;57.80
1129;DHT22;553;51.038;7.216;2023-06-14T07:22:01;24.20;58.50
1129;DHT22;553;51.038;7.216;2023-06-14T07:24:28;24.60;59.00
1129;DHT22;553;51.038;7.216;2023-06-14T07:26:55;24.80;57.80
1129;DHT22;553;51.038;7.216;2023-06-14T07:29:22;24.60;57.30
1129;DHT22;553;51.038;7.216;2023-06-14T07:31:49;24.60;57.70
1129;DHT22;553;51.038;7.216;2023-06-14T07:34:16;24.50;57.80
1129;DHT22;553;51.038;7.216;2023-06-14T07:36:42;24.60;57.70
1129;DHT22;553;51.038;7.216;2023-06-14T07:39:11;24.90;56.90
1129;DHT22;553;51.038;7.216;2023-06-14T07:41:37;24.80;55.40
1129;DHT22;553;51.038;7.216;2023-06-14T07:44:04;24.50;56.50
1129;DHT22;553;51.038;7.216;2023-06-14T07:46:31;24.70;57.30
1129;DHT22;553;51.038;7.216;2023-06-14T07:48:58;25.20;57.00
1129;DHT22;553;51.038;7.216;2023-06-14T07:51:25;25.60;57.00
1129;DHT22;553;51.038;7.216;2023-06-14T07:53:51;25.30;54.40
1129;DHT22;553;51.038;7.216;2023-06-14T07:56:18;25.40;55.00
1129;DHT22;553;51.038;7.216;2023-06-14T07:58:45;25.30;53.70
1129;DHT22;553;51.038;7.216;2023-06-14T08:01:11;25.20;53.60
1129;DHT22;553;51.038;7.216;2023-06-14T08:03:38;25.10;53.90
1129;DHT22;553;51.038;7.216;2023-06-14T08:06:06;25.00;53.90
1129;DHT22;553;51.038;7.216;2023-06-14T08:08:33;25.10;54.60
1129;DHT22;553;51.038;7.216;2023-06-14T08:11:00;25.50;54.60
1129;DHT22;553;51.038;7.216;2023-06-14T08:13:27;25.80;55.10
1129;DHT22;553;51.038;7.216;2023-06-14T08:15:54;25.90;55.20
1129;DHT22;553;51.038;7.216;2023-06-14T08:18:21;26.20;53.90
1129;DHT22;553;51.038;7.216;2023-06-14T08:20:48;26.00;54.50
1129;DHT22;553;51.038;7.216;2023-06-14T08:23:15;25.90;54.10
1129;DHT22;553;51.038;7.216;2023-06-14T08:25:45;25.90;54.50
1129;DHT22;553;51.038;7.216;2023-06-14T08:28:12;26.00;54.20
1129;DHT22;553;51.038;7.216;2023-06-14T08:30:39;26.10;52.20
1129;DHT22;553;51.038;7.216;2023-06-14T08:33:05;25.80;52.40
1129;DHT22;553;51.038;7.216;2023-06-14T08:35:43;25.80;54.20
1129;DHT22;553;51.038;7.216;2023-06-14T08:38:10;26.10;54.60
1129;DHT22;553;51.038;7.216;2023-06-14T08:40:40;26.40;54.10
1129;DHT22;553;51.038;7.216;2023-06-14T08:43:08;26.10;54.10
1129;DHT22;553;51.038;7.216;2023-06-14T08:45:35;26.10;55.10
1129;DHT22;553;51.038;7.216;2023-06-14T08:48:02;25.80;53.10
1129;DHT22;553;51.038;7.216;2023-06-14T08:50:30;25.50;54.20
1129;DHT22;553;51.038;7.216;2023-06-14T08:53:01;25.30;55.10
1129;DHT22;553;51.038;7.216;2023-06-14T08:55:31;25.40;55.50
1129;DHT22;553;51.038;7.216;2023-06-14T08:58:03;25.20;55.40
1129;DHT22;553;51.038;7.216;2023-06-14T09:00:31;25.00;55.50
1129;DHT22;553;51.038;7.216;2023-06-14T09:03:00;25.20;57.10
1129;DHT22;553;51.038;7.216;2023-06-14T09:05:28;25.30;57.40
1129;DHT22;553;51.038;7.216;2023-06-14T09:07:54;25.40;56.60
1129;DHT22;553;51.038;7.216;2023-06-14T09:10:23;25.30;56.10
1129;DHT22;553;51.038;7.216;2023-06-14T09:12:53;25.40;56.30
1129;DHT22;553;51.038;7.216;2023-06-14T09:15:20;25.20;56.30
1129;DHT22;553;51.038;7.216;2023-06-14T09:17:47;25.20;56.60
1129;DHT22;553;51.038;7.216;2023-06-14T09:20:14;25.10;56.40
1129;DHT22;553;51.038;7.216;2023-06-14T09:22:46;24.70;57.90
1129;DHT22;553;51.038;7.216;2023-06-14T09:25:13;24.80;57.90
1129;DHT22;553;51.038;7.216;2023-06-14T09:28:02;24.90;57.80
1129;DHT22;553;51.038;7.216;2023-06-14T09:30:32;25.10;57.80
1129;DHT22;553;51.038;7.216;2023-06-14T09:32:59;24.80;58.70
1129;DHT22;553;51.038;7.216;2023-06-14T09:35:28;24.90;59.30
1129;DHT22;553;51.038;7.216;2023-06-14T09:37:57;25.30;58.90
1129;DHT22;553;51.038;7.216;2023-06-14T09:40:24;25.30;57.80
1129;DHT22;553;51.038;7.216;2023-06-14T09:42:52;25.50;57.40
1129;DHT22;553;51.038;7.216;2023-06-14T09:45:19;25.60;55.80
1129;DHT22;553;51.038;7.216;2023-06-14T09:47:51;25.50;56.00
1129;DHT22;553;51.038;7.216;2023-06-14T09:50:34;25.50;57.10
1129;DHT22;553;51.038;7.216;2023-06-14T09:53:07;25.70;56.10
1129;DHT22;553;51.038;7.216;2023-06-14T09:55:38;25.60;57.10
1129;DHT22;553;51.038;7.216;2023-06-14T09:58:08;25.60;57.10
1129;DHT22;553;51.038;7.216;2023-06-14T10:00:36;25.60;57.60
1129;DHT22;553;51.038;7.216;2023-06-14T10:03:18;25.40;57.00
1129;DHT22;553;51.038;7.216;2023-06-14T10:05:48;25.40;57.80
1129;DHT22;553;51.038;7.216;2023-06-14T10:08:19;25.30;57.40
1129;DHT22;553;51.038;7.216;2023-06-14T10:10:46;25.20;58.20
1129;DHT22;553;51.038;7.216;2023-06-14T10:13:14;25.30;58.80
1129;DHT22;553;51.038;7.216;2023-06-14T10:18:49;25.20;58.00
1129;DHT22;553;51.038;7.216;2023-06-14T10:21:28;25.00;59.30
1129;DHT22;553;51.038;7.216;2023-06-14T10:24:03;25.20;59.20
1129;DHT22;553;51.038;7.216;2023-06-14T10:26:31;25.30;59.80
1129;DHT22;553;51.038;7.216;2023-06-14T10:29:00;25.40;59.30
1129;DHT22;553;51.038;7.216;2023-06-14T10:31:48;25.40;59.40
1129;DHT22;553;51.038;7.216;2023-06-14T10:34:23;25.40;60.00
1129;DHT22;553;51.038;7.216;2023-06-14T10:37:03;25.50;59.50
1129;DHT22;553;51.038;7.216;2023-06-14T10:39:31;25.40;60.10
1129;DHT22;553;51.038;7.216;2023-06-14T10:42:01;25.40;60.30
1129;DHT22;553;51.038;7.216;2023-06-14T10:44:33;25.40;59.70
1129;DHT22;553;51.038;7.216;2023-06-14T10:47:01;25.30;59.50
1129;DHT22;553;51.038;7.216;2023-06-14T10:49:38;25.20;60.40
1129;DHT22;553;51.038;7.216;2023-06-14T10:52:13;25.10;59.50
1129;DHT22;553;51.038;7.216;2023-06-14T10:57:46;25.20;59.80
1129;DHT22;553;51.038;7.216;2023-06-14T11:00:20;25.10;58.60
1129;DHT22;553;51.038;7.216;2023-06-14T11:03:31;25.20;60.30
1129;DHT22;553;51.038;7.216;2023-06-14T11:06:13;25.20;59.40
1129;DHT22;553;51.038;7.216;2023-06-14T11:11:42;25.60;57.70
1129;DHT22;553;51.038;7.216;2023-06-14T11:14:10;25.70;57.90
1129;DHT22;553;51.038;7.216;2023-06-14T11:16:37;26.10;58.50
1129;DHT22;553;51.038;7.216;2023-06-14T11:19:04;26.30;56.80
1129;DHT22;553;51.038;7.216;2023-06-14T11:21:32;26.50;56.30
1129;DHT22;553;51.038;7.216;2023-06-14T11:23:59;26.50;55.70
1129;DHT22;553;51.038;7.216;2023-06-14T11:26:28;26.40;54.10
1129;DHT22;553;51.038;7.216;2023-06-14T11:28:56;26.20;54.30
1129;DHT22;553;51.038;7.216;2023-06-14T11:31:24;26.00;54.60
1129;DHT22;553;51.038;7.216;2023-06-14T11:33:56;25.70;54.90
1129;DHT22;553;51.038;7.216;2023-06-14T11:36:26;25.60;54.70
1129;DHT22;553;51.038;7.216;2023-06-14T11:39:00;25.50;55.20
1129;DHT22;553;51.038;7.216;2023-06-14T11:41:32;25.60;54.20
1129;DHT22;553;51.038;7.216;2023-06-14T11:44:01;25.40;53.80
1129;DHT22;553;51.038;7.216;2023-06-14T11:46:28;25.30;55.20
1129;DHT22;553;51.038;7.216;2023-06-14T11:48:55;25.30;56.20
1129;DHT22;553;51.038;7.216;2023-06-14T11:51:22;25.60;56.80
1129;DHT22;553;51.038;7.216;2023-06-14T11:53:49;25.70;55.80
1129;DHT22;553;51.038;7.216;2023-06-14T11:56:15;25.90;56.10
1129;DHT22;553;51.038;7.216;2023-06-14T11:58:44;26.00;56.50
1129;DHT22;553;51.038;7.216;2023-06-14T12:01:17;25.90;56.60
1129;DHT22;553;51.038;7.216;2023-06-14T12:03:51;25.80;56.00
1129;DHT22;553;51.038;7.216;2023-06-14T12:06:26;25.70;56.30
1129;DHT22;553;51.038;7.216;2023-06-14T12:09:00;25.90;56.70
1129;DHT22;553;51.038;7.216;2023-06-14T12:11:34;25.90;56.90
1129;DHT22;553;51.038;7.216;2023-06-14T12:14:04;25.80;57.30
1129;DHT22;553;51.038;7.216;2023-06-14T12:16:35;25.70;57.30
1129;DHT22;553;51.038;7.216;2023-06-14T12:19:16;25.60;57.50
1129;DHT22;553;51.038;7.216;2023-06-14T12:21:46;25.80;58.10
1129;DHT22;553;51.038;7.216;2023-06-14T12:24:17;25.90;57.80
1129;DHT22;553;51.038;7.216;2023-06-14T12:26:44;26.00;57.50
1129;DHT22;553;51.038;7.216;2023-06-14T12:29:11;26.10;56.00
1129;DHT22;553;51.038;7.216;2023-06-14T12:31:40;26.20;56.60
1129;DHT22;553;51.038;7.216;2023-06-14T12:34:07;26.30;57.30
1129;DHT22;553;51.038;7.216;2023-06-14T12:36:34;26.10;58.20
1129;DHT22;553;51.038;7.216;2023-06-14T12:39:06;26.10;57.60
1129;DHT22;553;51.038;7.216;2023-06-14T12:41:34;26.20;58.20
1129;DHT22;553;51.038;7.216;2023-06-14T12:44:01;26.30;57.80
1129;DHT22;553;51.038;7.216;2023-06-14T12:46:31;26.30;57.80
1129;DHT22;553;51.038;7.216;2023-06-14T12:48:58;26.00;58.00
1129;DHT22;553;51.038;7.216;2023-06-14T12:51:25;25.90;57.50
1129;DHT22;553;51.038;7.216;2023-06-14T12:53:52;25.80;59.10
1129;DHT22;553;51.038;7.216;2023-06-14T12:56:19;25.80;57.80
1129;DHT22;553;51.038;7.216;2023-06-14T12:58:48;25.80;57.90
1129;DHT22;553;51.038;7.216;2023-06-14T13:01:14;25.70;57.60
1129;DHT22;553;51.038;7.216;2023-06-14T13:03:41;25.70;57.70
1129;DHT22;553;51.038;7.216;2023-06-14T13:06:08;25.80;58.10
1129;DHT22;553;51.038;7.216;2023-06-14T13:08:35;25.90;56.80
1129;DHT22;553;51.038;7.216;2023-06-14T13:11:01;25.70;58.10
1129;DHT22;553;51.038;7.216;2023-06-14T13:13:28;25.60;58.40
1129;DHT22;553;51.038;7.216;2023-06-14T13:15:55;25.70;57.70
1129;DHT22;553;51.038;7.216;2023-06-14T13:18:22;25.50;57.40
1129;DHT22;553;51.038;7.216;2023-06-14T13:20:48;25.40;57.40
1129;DHT22;553;51.038;7.216;2023-06-14T13:23:16;25.20;57.60
1129;DHT22;553;51.038;7.216;2023-06-14T13:25:42;25.20;57.70
1129;DHT22;553;51.038;7.216;2023-06-14T13:28:09;25.40;57.90
1129;DHT22;553;51.038;7.216;2023-06-14T13:30:37;25.60;58.30
1129;DHT22;553;51.038;7.216;2023-06-14T13:33:03;25.60;57.90
1129;DHT22;553;51.038;7.216;2023-06-14T13:35:30;25.70;56.80
1129;DHT22;553;51.038;7.216;2023-06-14T13:37:57;25.60;57.10
1129;DHT22;553;51.038;7.216;2023-06-14T13:40:23;25.80;56.30
1129;DHT22;553;51.038;7.216;2023-06-14T13:42:50;25.80;57.10
1129;DHT22;553;51.038;7.216;2023-06-14T13:45:17;25.60;56.50
1129;DHT22;553;51.038;7.216;2023-06-14T13:47:44;25.80;55.70
1129;DHT22;553;51.038;7.216;2023-06-14T13:50:14;25.90;55.80
1129;DHT22;553;51.038;7.216;2023-06-14T13:52:43;25.90;55.50
1129;DHT22;553;51.038;7.216;2023-06-14T13:55:09;25.90;55.30
1129;DHT22;553;51.038;7.216;2023-06-14T13:57:36;25.80;55.80
1129;DHT22;553;51.038;7.216;2023-06-14T14:00:03;26.00;56.10
1129;DHT22;553;51.038;7.216;2023-06-14T14:02:38;26.10;56.80
1129;DHT22;553;51.038;7.216;2023-06-14T14:05:06;26.10;55.70
1129;DHT22;553;51.038;7.216;2023-06-14T14:07:33;25.90;56.70
1129;DHT22;553;51.038;7.216;2023-06-14T14:10:01;25.80;57.10
1129;DHT22;553;51.038;7.216;2023-06-14T14:12:28;25.60;57.40
1129;DHT22;553;51.038;7.216;2023-06-14T14:14:55;25.50;56.70
1129;DHT22;553;51.038;7.216;2023-06-14T14:17:22;25.60;57.50
1129;DHT22;553;51.038;7.216;2023-06-14T14:19:49;25.90;57.50
1129;DHT22;553;51.038;7.216;2023-06-14T14:22:16;25.80;57.10
1129;DHT22;553;51.038;7.216;2023-06-14T14:24:43;25.60;56.80
1129;DHT22;553;51.038;7.216;2023-06-14T14:27:10;25.70;56.30
1129;DHT22;553;51.038;7.216;2023-06-14T14:29:37;25.70;56.80
1129;DHT22;553;51.038;7.216;2023-06-14T14:32:04;25.80;57.20
1129;DHT22;553;51.038;7.216;2023-06-14T14:34:31;25.80;56.70
1129;DHT22;553;51.038;7.216;2023-06-14T14:36:57;25.60;56.80
1129;DHT22;553;51.038;7.216;2023-06-14T14:39:24;25.50;57.90
1129;DHT22;553;51.038;7.216;2023-06-14T14:41:51;25.40;57.70
1129;DHT22;553;51.038;7.216;2023-06-14T14:44:18;25.20;58.20
1129;DHT22;553;51.038;7.216;2023-06-14T14:46:45;25.10;58.50
1129;DHT22;553;51.038;7.216;2023-06-14T14:49:12;25.20;58.40
1129;DHT22;553;51.038;7.216;2023-06-14T14:51:39;25.40;57.40
1129;DHT22;553;51.038;7.216;2023-06-14T14:54:06;25.50;56.80
1129;DHT22;553;51.038;7.216;2023-06-14T14:56:33;25.60;57.30
1129;DHT22;553;51.038;7.216;2023-06-14T14:59:01;25.70;57.00
1129;DHT22;553;51.038;7.216;2023-06-14T15:01:29;25.70;57.40
1129;DHT22;553;51.038;7.216;2023-06-14T15:03:56;25.50;57.40
1129;DHT22;553;51.038;7.216;2023-06-14T15:06:25;25.20;57.50
1129;DHT22;553;51.038;7.216;2023-06-14T15:08:52;25.00;58.40
1129;DHT22;553;51.038;7.216;2023-06-14T15:11:19;24.90;59.10
1129;DHT22;553;51.038;7.216;2023-06-14T15:13:47;24.90;58.70
1129;DHT22;553;51.038;7.216;2023-06-14T15:16:14;25.00;58.10
1129;DHT22;553;51.038;7.216;2023-06-14T15:18:41;25.00;57.60
1129;DHT22;553;51.038;7.216;2023-06-14T15:21:07;24.90;58.20
1129;DHT22;553;51.038;7.216;2023-06-14T15:23:34;25.20;58.60
1129;DHT22;553;51.038;7.216;2023-06-14T15:26:01;25.20;57.50
1129;DHT22;553;51.038;7.216;2023-06-14T15:28:28;25.20;57.30
1129;DHT22;553;51.038;7.216;2023-06-14T15:30:55;25.10;57.60
1129;DHT22;553;51.038;7.216;2023-06-14T15:33:23;25.20;57.60
1129;DHT22;553;51.038;7.216;2023-06-14T15:35:50;25.10;58.30
1129;DHT22;553;51.038;7.216;2023-06-14T15:38:16;25.20;58.00
1129;DHT22;553;51.038;7.216;2023-06-14T15:40:43;25.20;58.00
1129;DHT22;553;51.038;7.216;2023-06-14T15:43:10;25.10;58.20
1129;DHT22;553;51.038;7.216;2023-06-14T15:45:37;25.00;58.00
1129;DHT22;553;51.038;7.216;2023-06-14T15:48:04;25.10;57.70
1129;DHT22;553;51.038;7.216;2023-06-14T15:50:31;25.30;57.70
1129;DHT22;553;51.038;7.216;2023-06-14T15:52:58;25.30;57.70
1129;DHT22;553;51.038;7.216;2023-06-14T15:55:24;25.30;57.20
1129;DHT22;553;51.038;7.216;2023-06-14T15:57:51;25.30;56.90
1129;DHT22;553;51.038;7.216;2023-06-14T16:00:18;25.20;57.60
1129;DHT22;553;51.038;7.216;2023-06-14T16:02:46;25.20;57.50
1129;DHT22;553;51.038;7.216;2023-06-14T16:05:13;25.20;57.00
1129;DHT22;553;51.038;7.216;2023-06-14T16:07:40;25.30;56.90
1129;DHT22;553;51.038;7.216;2023-06-14T16:10:07;25.50;56.90
1129;DHT22;553;51.038;7.216;2023-06-14T16:12:34;25.60;55.90
1129;DHT22;553;51.038;7.216;2023-06-14T16:15:00;25.50;56.50
1129;DHT22;553;51.038;7.216;2023-06-14T16:17:27;25.60;56.10
1129;DHT22;553;51.038;7.216;2023-06-14T16:19:54;25.60;55.60
1129;DHT22;553;51.038;7.216;2023-06-14T16:22:21;25.50;56.70
1129;DHT22;553;51.038;7.216;2023-06-14T16:24:48;25.60;57.40
1129;DHT22;553;51.038;7.216;2023-06-14T16:27:15;25.70;56.60
1129;DHT22;553;51.038;7.216;2023-06-14T16:29:45;25.50;56.50
1129;DHT22;553;51.038;7.216;2023-06-14T16:32:12;25.50;57.10
1129;DHT22;553;51.038;7.216;2023-06-14T16:34:38;25.50;56.40
1129;DHT22;553;51.038;7.216;2023-06-14T16:37:05;25.40;57.20